Time;durP1;ratioP1;P1;durP2;ratioP2;P2;SDS_P1;SDS_P2;PMS_P1;PMS_P2;Temp;Humidity;BMP_temperature;BMP_pressure;BME280_temperature;BME280_humidity;BME280_pressure;Samples;Min_cycle;Max_cycle;Signal;HPM_P1;HPM_P2
2022/11/20 00:01:08;;;;;;;;;;;8.00;63.20;;;;;;4992706;28;19937;-48
2022/11/20 00:03:35;;;;;;;;;;;8.00;63.20;;;;;;4992992;28;19926;-47
2022/11/20 00:06:03;;;;;;;;;;;8.00;63.20;;;;;;4993278;28;19934;-48
2022/11/20 00:08:36;;;;;;;;;;;8.00;63.20;;;;;;4992977;28;20000;-48
2022/11/20 00:11:06;;;;;;;;;;;8.00;63.30;;;;;;4993158;28;20451;-47
2022/11/20 00:13:43;;;;;;;;;;;8.00;63.20;;;;;;4993106;28;19933;-48
2022/11/20 00:16:14;;;;;;;;;;;8.00;63.20;;;;;;4993082;28;20305;-50
2022/11/20 00:18:44;;;;;;;;;;;8.00;63.10;;;;;;4991751;28;20016;-48
2022/11/20 00:21:18;;;;;;;;;;;8.00;63.20;;;;;;4993147;28;19929;-50
2022/11/20 00:23:48;;;;;;;;;;;8.00;63.10;;;;;;4988009;28;19965;-48
2022/11/20 00:26:16;;;;;;;;;;;8.10;63.10;;;;;;4992090;28;19929;-48
2022/11/20 00:28:44;;;;;;;;;;;8.00;63.10;;;;;;4992613;28;19972;-48
2022/11/20 00:31:12;;;;;;;;;;;8.00;63.20;;;;;;4992913;28;19930;-47
2022/11/20 00:33:38;;;;;;;;;;;8.00;63.20;;;;;;4991917;28;19936;-51
2022/11/20 00:36:14;;;;;;;;;;;8.00;63.20;;;;;;4990809;28;19937;-47
2022/11/20 00:38:46;;;;;;;;;;;8.00;63.30;;;;;;4991579;28;20044;-48
2022/11/20 00:41:14;;;;;;;;;;;8.00;63.30;;;;;;4992841;28;19926;-47
2022/11/20 00:43:46;;;;;;;;;;;7.90;63.30;;;;;;4992470;28;20386;-48
2022/11/20 00:46:16;;;;;;;;;;;8.00;63.20;;;;;;4991759;28;19937;-48
2022/11/20 00:48:43;;;;;;;;;;;7.90;63.20;;;;;;4991755;28;20286;-48
2022/11/20 00:51:11;;;;;;;;;;;8.00;63.30;;;;;;5004019;28;20262;-48
2022/11/20 00:53:37;;;;;;;;;;;8.00;63.30;;;;;;4992112;28;19929;-48
2022/11/20 00:56:06;;;;;;;;;;;8.00;63.30;;;;;;4991438;28;19935;-49
2022/11/20 00:58:40;;;;;;;;;;;8.00;63.30;;;;;;4992319;28;19930;-48
2022/11/20 01:01:11;;;;;;;;;;;8.00;63.30;;;;;;4992872;28;20293;-47
2022/11/20 01:03:39;;;;;;;;;;;8.00;63.30;;;;;;4992134;28;19984;-49
2022/11/20 01:06:07;;;;;;;;;;;8.00;63.30;;;;;;4991482;28;19925;-47
2022/11/20 01:08:34;;;;;;;;;;;8.00;63.30;;;;;;4992098;28;19930;-50
2022/11/20 01:11:02;;;;;;;;;;;8.00;63.30;;;;;;4992397;28;19930;-47
2022/11/20 01:13:36;;;;;;;;;;;8.00;63.30;;;;;;4991401;28;20161;-48
2022/11/20 01:16:13;;;;;;;;;;;8.00;63.30;;;;;;4990671;28;20410;-49
2022/11/20 01:18:41;;;;;;;;;;;8.00;63.30;;;;;;4992004;28;19925;-50
2022/11/20 01:21:10;;;;;;;;;;;8.00;63.30;;;;;;4991899;28;19972;-47
2022/11/20 01:23:38;;;;;;;;;;;8.00;63.30;;;;;;4991312;28;20286;-48
2022/11/20 01:26:06;;;;;;;;;;;8.00;63.30;;;;;;4991632;28;20294;-48
2022/11/20 01:28:35;;;;;;;;;;;8.00;63.30;;;;;;4991720;28;19976;-48
2022/11/20 01:31:11;;;;;;;;;;;8.00;63.30;;;;;;4991432;28;19961;-48
2022/11/20 01:33:40;;;;;;;;;;;8.00;63.30;;;;;;4988519;28;19930;-48
2022/11/20 01:36:07;;;;;;;;;;;8.00;63.30;;;;;;4991390;28;19933;-48
2022/11/20 01:38:33;;;;;;;;;;;8.00;63.40;;;;;;4991829;28;20305;-48
2022/11/20 01:41:00;;;;;;;;;;;8.00;63.40;;;;;;4991412;28;19926;-49
2022/11/20 01:43:29;;;;;;;;;;;8.00;63.40;;;;;;4991540;28;19925;-48
2022/11/20 01:45:58;;;;;;;;;;;8.00;63.40;;;;;;4990878;28;19926;-47
2022/11/20 01:48:26;;;;;;;;;;;7.90;63.40;;;;;;4991276;28;20401;-49
2022/11/20 01:50:59;;;;;;;;;;;7.90;63.40;;;;;;4987185;28;19950;-47
2022/11/20 01:53:33;;;;;;;;;;;7.90;63.40;;;;;;4990440;28;19937;-48
2022/11/20 01:56:09;;;;;;;;;;;7.80;63.40;;;;;;4985231;28;20032;-47
2022/11/20 01:58:42;;;;;;;;;;;7.80;63.40;;;;;;4991753;28;19988;-51
2022/11/20 02:01:09;;;;;;;;;;;7.80;63.50;;;;;;4990962;28;19929;-47
2022/11/20 02:03:38;;;;;;;;;;;7.80;63.50;;;;;;4991032;28;20020;-51
2022/11/20 02:06:12;;;;;;;;;;;7.70;63.40;;;;;;4991399;28;19926;-48
2022/11/20 02:08:41;;;;;;;;;;;7.70;63.50;;;;;;4990866;28;20369;-48
2022/11/20 02:11:08;;;;;;;;;;;7.70;63.50;;;;;;4991222;28;19937;-48
2022/11/20 02:13:44;;;;;;;;;;;7.70;63.50;;;;;;4991290;28;20411;-48
2022/11/20 02:16:13;;;;;;;;;;;7.60;63.50;;;;;;4991130;28;20309;-51
2022/11/20 02:18:41;;;;;;;;;;;7.60;63.50;;;;;;4991823;28;19925;-47
2022/11/20 02:21:21;;;;;;;;;;;7.50;63.40;;;;;;4990848;28;20317;-47
2022/11/20 02:24:01;;;;;;;;;;;7.50;63.40;;;;;;4991000;28;19932;-47
2022/11/20 02:26:29;;;;;;;;;;;7.50;63.30;;;;;;4990705;28;20457;-48
2022/11/20 02:28:56;;;;;;;;;;;7.40;63.20;;;;;;4990881;28;19933;-48
2022/11/20 02:31:25;;;;;;;;;;;7.30;63.10;;;;;;4991269;28;20028;-48
2022/11/20 02:33:58;;;;;;;;;;;7.30;63.10;;;;;;4993921;28;19926;-48
2022/11/20 02:36:27;;;;;;;;;;;7.20;63.00;;;;;;4995286;28;19926;-47
2022/11/20 02:38:54;;;;;;;;;;;7.10;62.90;;;;;;4994443;28;19926;-47
2022/11/20 02:41:33;;;;;;;;;;;7.00;62.90;;;;;;4995046;28;19926;-48
2022/11/20 02:44:02;;;;;;;;;;;6.90;62.80;;;;;;4988302;28;19936;-48
2022/11/20 02:46:31;;;;;;;;;;;6.80;62.90;;;;;;4994452;28;19933;-47
2022/11/20 02:48:57;;;;;;;;;;;6.70;63.50;;;;;;4992771;28;20293;-49
2022/11/20 02:51:24;;;;;;;;;;;6.70;63.00;;;;;;4992387;28;19926;-47
2022/11/20 02:53:50;;;;;;;;;;;6.60;63.10;;;;;;4994401;28;19926;-49
2022/11/20 02:56:17;;;;;;;;;;;6.50;63.30;;;;;;4994061;28;19960;-48
2022/11/20 02:58:44;;;;;;;;;;;6.50;63.40;;;;;;4994361;28;19929;-48
2022/11/20 03:01:10;;;;;;;;;;;6.40;63.40;;;;;;4994791;28;20386;-47
2022/11/20 03:03:37;;;;;;;;;;;6.30;63.60;;;;;;4994682;28;19930;-49
2022/11/20 03:06:08;;;;;;;;;;;6.30;63.70;;;;;;4993854;28;19926;-48
2022/11/20 03:08:35;;;;;;;;;;;6.30;63.90;;;;;;5004273;28;20345;-51
2022/11/20 03:11:02;;;;;;;;;;;6.30;64.10;;;;;;4994449;28;19926;-48
2022/11/20 03:13:30;;;;;;;;;;;6.30;64.30;;;;;;4994563;28;19925;-47
2022/11/20 03:15:57;;;;;;;;;;;6.20;64.40;;;;;;4992888;28;20301;-48
2022/11/20 03:18:23;;;;;;;;;;;6.20;64.60;;;;;;4994396;28;19968;-49
2022/11/20 03:20:56;;;;;;;;;;;6.30;64.80;;;;;;4994337;28;19926;-51
2022/11/20 03:23:22;;;;;;;;;;;6.30;64.80;;;;;;4994121;28;19926;-49
2022/11/20 03:25:52;;;;;;;;;;;6.30;64.90;;;;;;4992581;28;20393;-49
2022/11/20 03:28:21;;;;;;;;;;;6.40;65.00;;;;;;4993798;28;19965;-48
2022/11/20 03:30:47;;;;;;;;;;;6.40;65.00;;;;;;4993810;28;20394;-49
2022/11/20 03:33:14;;;;;;;;;;;6.40;65.00;;;;;;4994022;28;19960;-49
2022/11/20 03:35:41;;;;;;;;;;;6.50;65.00;;;;;;4992007;28;20308;-47
2022/11/20 03:38:08;;;;;;;;;;;6.50;64.90;;;;;;4993886;28;20013;-50
2022/11/20 03:40:35;;;;;;;;;;;6.50;64.80;;;;;;4994050;28;20397;-47
2022/11/20 03:43:02;;;;;;;;;;;6.50;64.70;;;;;;4993691;28;19925;-47
2022/11/20 03:45:28;;;;;;;;;;;6.60;64.70;;;;;;4992678;28;19996;-48
2022/11/20 03:47:55;;;;;;;;;;;6.50;64.70;;;;;;4985960;28;20016;-48
2022/11/20 03:50:21;;;;;;;;;;;6.50;64.70;;;;;;4988677;28;19926;-47
2022/11/20 03:52:51;;;;;;;;;;;6.60;64.70;;;;;;4990794;28;19926;-47
2022/11/20 03:55:18;;;;;;;;;;;6.60;64.70;;;;;;4993047;28;19960;-48
2022/11/20 03:57:45;;;;;;;;;;;6.60;64.70;;;;;;4992762;28;20566;-48
2022/11/20 04:00:12;;;;;;;;;;;6.60;64.80;;;;;;4999473;28;19926;-47
2022/11/20 04:02:38;;;;;;;;;;;6.70;64.70;;;;;;4993574;28;19926;-48
2022/11/20 04:05:05;;;;;;;;;;;6.60;64.50;;;;;;4992538;28;19926;-51
2022/11/20 04:07:33;;;;;;;;;;;6.60;64.50;;;;;;4992882;28;19980;-49
2022/11/20 04:10:02;;;;;;;;;;;6.60;64.60;;;;;;4993443;28;20321;-47
2022/11/20 04:12:31;;;;;;;;;;;6.70;64.50;;;;;;4992996;28;19940;-47
2022/11/20 04:14:58;;;;;;;;;;;6.60;64.40;;;;;;4992864;28;20317;-47
2022/11/20 04:17:24;;;;;;;;;;;6.60;64.40;;;;;;4993026;28;19926;-48
2022/11/20 04:19:51;;;;;;;;;;;6.60;64.40;;;;;;4993255;28;19925;-48
2022/11/20 04:22:17;;;;;;;;;;;6.60;64.40;;;;;;4992083;28;19961;-47
2022/11/20 04:24:44;;;;;;;;;;;6.60;64.30;;;;;;4992649;28;19925;-51
2022/11/20 04:27:11;;;;;;;;;;;6.60;64.30;;;;;;4992790;28;19926;-47
2022/11/20 04:29:37;;;;;;;;;;;6.60;64.30;;;;;;4993270;28;19926;-48
2022/11/20 04:32:04;;;;;;;;;;;6.60;64.30;;;;;;4992512;28;19933;-47
2022/11/20 04:34:33;;;;;;;;;;;6.60;64.30;;;;;;4989234;28;19933;-48
2022/11/20 04:37:00;;;;;;;;;;;6.60;64.30;;;;;;4992827;28;20364;-47
2022/11/20 04:39:27;;;;;;;;;;;6.60;64.30;;;;;;4991806;28;19933;-47
2022/11/20 04:42:28;;;;;;;;;;;6.60;64.40;;;;;;4989960;28;20012;-47
2022/11/20 04:44:43;;;;;;;;;;;6.60;64.40;;;;;;4992251;28;20290;-48
2022/11/20 04:47:09;;;;;;;;;;;6.60;64.30;;;;;;4992571;28;19926;-47
2022/11/20 04:49:36;;;;;;;;;;;6.60;64.20;;;;;;4990802;28;19949;-47
2022/11/20 04:52:02;;;;;;;;;;;6.60;64.20;;;;;;4989874;28;19926;-47
2022/11/20 04:54:29;;;;;;;;;;;6.60;64.10;;;;;;4991288;28;20515;-46
2022/11/20 04:56:58;;;;;;;;;;;6.50;64.10;;;;;;4992424;28;19949;-47
2022/11/20 04:59:29;;;;;;;;;;;6.50;64.10;;;;;;4990736;28;20436;-49
2022/11/20 05:01:56;;;;;;;;;;;6.50;64.10;;;;;;4992313;28;20029;-50
2022/11/20 05:04:22;;;;;;;;;;;6.50;64.20;;;;;;4992387;28;20333;-47
2022/11/20 05:06:49;;;;;;;;;;;6.50;64.30;;;;;;4990990;28;19933;-46
2022/11/20 05:09:16;;;;;;;;;;;6.50;65.00;;;;;;4991701;28;19925;-48
2022/11/20 05:11:42;;;;;;;;;;;6.50;64.50;;;;;;4991750;28;20032;-48
2022/11/20 05:14:16;;;;;;;;;;;6.40;64.50;;;;;;4991965;28;19948;-47
2022/11/20 05:16:43;;;;;;;;;;;6.50;64.60;;;;;;4992133;28;19932;-50
2022/11/20 05:19:10;;;;;;;;;;;6.50;64.60;;;;;;4990846;28;19934;-47
2022/11/20 05:21:36;;;;;;;;;;;6.50;64.60;;;;;;4992055;28;19926;-47
2022/11/20 05:24:03;;;;;;;;;;;6.50;64.50;;;;;;4987124;28;20028;-47
2022/11/20 05:26:30;;;;;;;;;;;6.50;64.50;;;;;;4991837;28;19973;-48
2022/11/20 05:28:57;;;;;;;;;;;6.50;64.40;;;;;;4991215;28;19932;-47
2022/11/20 05:31:26;;;;;;;;;;;6.50;64.40;;;;;;4991997;28;19980;-51
2022/11/20 05:33:55;;;;;;;;;;;6.50;64.40;;;;;;4973974;28;19926;-49
2022/11/20 05:36:21;;;;;;;;;;;6.50;64.40;;;;;;4990900;28;19981;-51
2022/11/20 05:38:48;;;;;;;;;;;6.50;64.40;;;;;;4990910;28;19926;-48
2022/11/20 05:41:18;;;;;;;;;;;6.50;64.40;;;;;;4991837;28;19933;-49
2022/11/20 05:43:45;;;;;;;;;;;6.50;64.40;;;;;;4991397;28;19926;-48
2022/11/20 05:46:13;;;;;;;;;;;6.40;64.30;;;;;;4990997;28;20401;-51
2022/11/20 05:48:40;;;;;;;;;;;6.40;64.30;;;;;;4990545;28;19930;-48
2022/11/20 05:51:08;;;;;;;;;;;6.40;64.30;;;;;;4988532;28;19927;-47
2022/11/20 05:53:35;;;;;;;;;;;6.40;64.30;;;;;;4991405;28;19930;-48
2022/11/20 05:56:07;;;;;;;;;;;6.30;64.30;;;;;;4990506;28;19952;-50
2022/11/20 05:58:33;;;;;;;;;;;6.30;64.30;;;;;;4991395;28;19929;-47
2022/11/20 06:01:08;;;;;;;;;;;6.30;64.30;;;;;;4992196;28;19930;-47
2022/11/20 06:03:35;;;;;;;;;;;6.30;64.30;;;;;;4991434;28;19985;-47
2022/11/20 06:06:04;;;;;;;;;;;6.30;64.30;;;;;;4991882;28;19932;-48
2022/11/20 06:08:30;;;;;;;;;;;6.20;64.30;;;;;;4995535;28;19937;-48
2022/11/20 06:11:02;;;;;;;;;;;6.20;64.30;;;;;;4995638;28;19933;-48
2022/11/20 06:13:31;;;;;;;;;;;6.10;64.20;;;;;;4994891;28;19952;-47
2022/11/20 06:15:58;;;;;;;;;;;6.10;64.30;;;;;;4993950;28;19925;-48
2022/11/20 06:18:26;;;;;;;;;;;6.10;64.40;;;;;;4995433;28;19941;-48
2022/11/20 06:20:59;;;;;;;;;;;6.10;64.50;;;;;;4985728;28;20008;-48
2022/11/20 06:23:27;;;;;;;;;;;6.00;64.60;;;;;;4994928;28;20408;-48
2022/11/20 06:25:56;;;;;;;;;;;6.10;64.80;;;;;;4987204;28;19930;-50
2022/11/20 06:28:22;;;;;;;;;;;6.10;65.00;;;;;;4991914;28;19933;-50
2022/11/20 06:30:49;;;;;;;;;;;6.10;65.10;;;;;;4994998;28;19929;-47
2022/11/20 06:33:16;;;;;;;;;;;6.10;65.20;;;;;;4994634;28;19926;-48
2022/11/20 06:35:42;;;;;;;;;;;6.10;65.20;;;;;;4993072;28;19936;-49
2022/11/20 06:38:09;;;;;;;;;;;6.20;65.30;;;;;;4992063;28;19933;-47
2022/11/20 06:40:35;;;;;;;;;;;6.20;65.30;;;;;;4994776;28;19934;-51
2022/11/20 06:43:02;;;;;;;;;;;6.20;65.40;;;;;;4994820;28;20236;-48
2022/11/20 06:45:29;;;;;;;;;;;6.30;65.40;;;;;;4995115;28;19933;-47
2022/11/20 06:47:56;;;;;;;;;;;6.30;65.40;;;;;;4994430;28;19932;-49
2022/11/20 06:50:23;;;;;;;;;;;6.30;65.40;;;;;;4993355;28;19933;-49
2022/11/20 06:52:50;;;;;;;;;;;6.40;65.50;;;;;;4992668;28;19932;-48
2022/11/20 06:55:19;;;;;;;;;;;6.40;65.50;;;;;;4994526;28;19932;-48
2022/11/20 06:57:45;;;;;;;;;;;6.40;66.10;;;;;;4995003;28;19926;-49
2022/11/20 07:00:16;;;;;;;;;;;6.50;65.60;;;;;;4994775;28;20012;-47
2022/11/20 07:02:42;;;;;;;;;;;6.50;65.50;;;;;;4995006;28;19934;-47
2022/11/20 07:05:09;;;;;;;;;;;6.50;65.50;;;;;;4994910;28;19965;-47
2022/11/20 07:07:36;;;;;;;;;;;6.60;65.60;;;;;;4994592;28;20309;-47
2022/11/20 07:10:02;;;;;;;;;;;6.60;65.50;;;;;;4994856;28;19940;-48
2022/11/20 07:12:30;;;;;;;;;;;6.60;65.50;;;;;;4994233;28;20126;-48
2022/11/20 07:14:57;;;;;;;;;;;6.70;65.50;;;;;;4994762;28;20020;-48
2022/11/20 07:17:23;;;;;;;;;;;6.70;65.50;;;;;;4994059;28;19932;-47
2022/11/20 07:19:50;;;;;;;;;;;6.80;65.50;;;;;;4994448;28;19957;-47
2022/11/20 07:22:21;;;;;;;;;;;6.80;65.50;;;;;;4990433;28;20412;-47
2022/11/20 07:24:48;;;;;;;;;;;6.80;65.50;;;;;;4994520;28;19961;-47
2022/11/20 07:27:14;;;;;;;;;;;6.90;65.50;;;;;;4994575;28;19926;-50
2022/11/20 07:29:41;;;;;;;;;;;6.90;65.50;;;;;;4993394;28;19930;-49
2022/11/20 07:32:09;;;;;;;;;;;6.90;65.50;;;;;;4994488;28;19926;-49
2022/11/20 07:34:35;;;;;;;;;;;6.90;65.50;;;;;;4993597;28;19925;-51
2022/11/20 07:37:02;;;;;;;;;;;7.00;65.50;;;;;;4993781;28;20033;-50
2022/11/20 07:39:38;;;;;;;;;;;7.00;66.10;;;;;;4992769;28;19973;-50
2022/11/20 07:42:05;;;;;;;;;;;7.00;65.50;;;;;;4993210;28;19930;-50
2022/11/20 07:44:39;;;;;;;;;;;7.00;65.50;;;;;;4993070;28;19925;-51
2022/11/20 07:47:06;;;;;;;;;;;7.10;65.60;;;;;;4993580;28;19929;-48
2022/11/20 07:49:33;;;;;;;;;;;7.10;65.50;;;;;;4992494;28;19937;-49
2022/11/20 07:52:01;;;;;;;;;;;7.10;65.50;;;;;;4991774;28;19932;-48
2022/11/20 07:54:34;;;;;;;;;;;7.10;65.50;;;;;;4993690;28;20409;-47
2022/11/20 07:57:00;;;;;;;;;;;7.20;65.50;;;;;;4994514;28;19926;-47
2022/11/20 07:59:27;;;;;;;;;;;7.20;65.50;;;;;;4993163;28;19955;-47
2022/11/20 08:01:53;;;;;;;;;;;7.30;65.50;;;;;;4994014;28;19932;-47
2022/11/20 08:04:23;;;;;;;;;;;7.30;65.50;;;;;;4993935;28;20417;-48
2022/11/20 08:06:51;;;;;;;;;;;7.30;65.50;;;;;;4993611;28;20500;-47
2022/11/20 08:09:20;;;;;;;;;;;7.40;65.60;;;;;;4993912;28;20397;-48
2022/11/20 08:14:32;;;;;;;;;;;7.40;65.60;;;;;;4993832;28;19948;-48
2022/11/20 08:16:59;;;;;;;;;;;7.40;65.60;;;;;;4993255;28;20008;-48
2022/11/20 08:19:25;;;;;;;;;;;7.50;65.60;;;;;;4993839;28;19926;-48
2022/11/20 08:21:52;;;;;;;;;;;7.50;65.60;;;;;;4993706;28;19932;-48
2022/11/20 08:24:21;;;;;;;;;;;7.60;65.60;;;;;;4993557;28;19980;-48
2022/11/20 08:26:50;;;;;;;;;;;7.60;65.60;;;;;;4991926;28;19969;-47
2022/11/20 08:29:18;;;;;;;;;;;7.70;65.70;;;;;;4992632;28;19937;-50
2022/11/20 08:31:44;;;;;;;;;;;7.70;65.60;;;;;;4993724;28;19926;-49
2022/11/20 08:34:11;;;;;;;;;;;7.70;65.60;;;;;;4991931;28;19936;-48
2022/11/20 08:36:44;;;;;;;;;;;7.80;65.60;;;;;;4992098;28;20344;-48
2022/11/20 08:39:11;;;;;;;;;;;7.80;65.50;;;;;;4993269;28;19936;-48
2022/11/20 08:41:38;;;;;;;;;;;7.80;66.20;;;;;;4992725;28;19925;-48
2022/11/20 08:44:06;;;;;;;;;;;7.80;65.60;;;;;;4992340;28;19932;-48
2022/11/20 08:46:33;;;;;;;;;;;7.90;65.70;;;;;;4992622;28;19926;-47
2022/11/20 08:49:00;;;;;;;;;;;7.90;65.90;;;;;;4992038;28;19988;-49
2022/11/20 08:51:27;;;;;;;;;;;8.00;66.10;;;;;;4993446;28;20498;-47
2022/11/20 08:53:54;;;;;;;;;;;8.10;66.10;;;;;;4992732;28;19933;-47
2022/11/20 08:56:20;;;;;;;;;;;8.10;66.10;;;;;;4992996;28;19936;-50
2022/11/20 08:58:51;;;;;;;;;;;8.20;66.10;;;;;;5007258;28;19930;-47
2022/11/20 09:01:38;;;;;;;;;;;8.30;66.00;;;;;;4991359;28;19930;-47
2022/11/20 09:04:05;;;;;;;;;;;8.40;66.00;;;;;;4992272;28;19925;-48
2022/11/20 09:06:34;;;;;;;;;;;8.40;65.90;;;;;;4992289;28;19932;-50
2022/11/20 09:09:03;;;;;;;;;;;8.40;65.80;;;;;;4992967;28;19952;-47
2022/11/20 09:11:32;;;;;;;;;;;8.50;65.70;;;;;;4993052;28;19973;-49
2022/11/20 09:13:59;;;;;;;;;;;8.50;65.70;;;;;;4991716;28;19932;-48
2022/11/20 09:16:26;;;;;;;;;;;8.50;65.70;;;;;;4992317;28;20397;-48
2022/11/20 09:18:52;;;;;;;;;;;8.60;65.70;;;;;;4992768;28;20405;-48
2022/11/20 09:21:39;;;;;;;;;;;8.60;65.60;;;;;;4992200;28;19930;-51
2022/11/20 09:24:06;;;;;;;;;;;8.70;65.60;;;;;;4992318;28;20337;-48
2022/11/20 09:26:35;;;;;;;;;;;8.70;65.40;;;;;;4991902;28;19930;-48
2022/11/20 09:29:01;;;;;;;;;;;8.70;65.30;;;;;;4992741;28;19952;-47
2022/11/20 09:31:28;;;;;;;;;;;8.70;65.20;;;;;;4991983;28;19925;-49
2022/11/20 09:33:54;;;;;;;;;;;8.70;65.20;;;;;;4991789;28;19926;-48
2022/11/20 09:36:21;;;;;;;;;;;8.70;65.10;;;;;;4992248;28;19930;-48
2022/11/20 09:38:47;;;;;;;;;;;8.60;65.10;;;;;;4992397;28;19926;-47
2022/11/20 09:41:51;;;;;;;;;;;8.70;65.10;;;;;;4991258;28;20294;-47
2022/11/20 09:44:18;;;;;;;;;;;8.70;65.10;;;;;;4988147;28;20028;-51
2022/11/20 09:47:09;;;;;;;;;;;8.60;65.10;;;;;;4991923;28;19972;-46
2022/11/20 09:49:50;;;;;;;;;;;8.60;65.10;;;;;;4955592;28;19973;-46
2022/11/20 09:52:19;;;;;;;;;;;8.60;65.20;;;;;;4989032;28;21312;-48
2022/11/20 09:54:48;;;;;;;;;;;8.60;65.20;;;;;;4991782;28;19926;-48
2022/11/20 09:57:18;;;;;;;;;;;8.60;65.40;;;;;;4991138;28;20316;-49
2022/11/20 09:59:45;;;;;;;;;;;8.60;65.50;;;;;;4990677;28;19945;-47
2022/11/20 10:02:16;;;;;;;;;;;8.70;65.60;;;;;;4992049;28;20017;-47
2022/11/20 10:04:53;;;;;;;;;;;8.70;65.70;;;;;;4992018;28;19965;-50
2022/11/20 10:07:23;;;;;;;;;;;8.80;65.90;;;;;;4992095;28;20064;-48
2022/11/20 10:10:01;;;;;;;;;;;8.80;65.90;;;;;;4991546;28;19992;-47
2022/11/20 10:12:57;;;;;;;;;;;8.90;66.00;;;;;;4990685;28;19930;-52
2022/11/20 10:15:27;;;;;;;;;;;8.90;65.90;;;;;;4991803;28;20448;-49
2022/11/20 10:17:58;;;;;;;;;;;9.00;65.90;;;;;;4990674;28;19926;-48
2022/11/20 10:20:24;;;;;;;;;;;9.10;65.90;;;;;;4991814;28;19930;-47
2022/11/20 10:23:00;;;;;;;;;;;9.10;65.80;;;;;;4986468;28;19930;-49
2022/11/20 10:25:42;;;;;;;;;;;9.20;65.70;;;;;;4992033;28;19926;-47
2022/11/20 10:28:27;;;;;;;;;;;9.20;65.60;;;;;;4991337;28;19926;-48
2022/11/20 10:31:00;;;;;;;;;;;9.30;65.60;;;;;;4991560;28;19948;-47
2022/11/20 10:33:29;;;;;;;;;;;9.40;65.70;;;;;;4991669;28;19925;-49
2022/11/20 10:36:19;;;;;;;;;;;9.40;65.70;;;;;;4991764;28;19932;-48
2022/11/20 10:38:58;;;;;;;;;;;9.50;65.60;;;;;;4991331;28;19925;-48
2022/11/20 10:41:31;;;;;;;;;;;9.50;65.60;;;;;;4991864;28;19926;-47
2022/11/20 10:44:10;;;;;;;;;;;9.60;65.60;;;;;;4972149;28;19934;-49
2022/11/20 10:46:43;;;;;;;;;;;9.60;65.60;;;;;;4982223;28;19973;-48
2022/11/20 10:49:14;;;;;;;;;;;9.70;65.70;;;;;;4990539;28;19991;-49
2022/11/20 10:51:42;;;;;;;;;;;9.70;65.40;;;;;;4987714;28;19991;-48
2022/11/20 10:54:32;;;;;;;;;;;9.80;65.50;;;;;;4994455;28;19926;-47
2022/11/20 10:57:02;;;;;;;;;;;9.80;65.40;;;;;;4981159;28;19926;-47
2022/11/20 10:59:30;;;;;;;;;;;9.90;65.20;;;;;;4995004;28;20332;-47
2022/11/20 11:01:56;;;;;;;;;;;9.90;65.20;;;;;;4995416;28;19930;-48
2022/11/20 11:04:40;;;;;;;;;;;9.90;65.10;;;;;;4995308;28;19930;-48
2022/11/20 11:07:15;;;;;;;;;;;10.00;65.10;;;;;;5009315;28;19932;-48
2022/11/20 11:09:48;;;;;;;;;;;10.00;65.00;;;;;;4994932;28;19991;-47
2022/11/20 11:12:15;;;;;;;;;;;10.00;64.90;;;;;;4995131;28;20012;-48
2022/11/20 11:14:45;;;;;;;;;;;10.00;64.90;;;;;;4994187;28;20312;-49
2022/11/20 11:17:29;;;;;;;;;;;10.00;64.80;;;;;;4995626;28;19980;-48
2022/11/20 11:19:59;;;;;;;;;;;10.00;64.80;;;;;;4987280;28;19926;-49
2022/11/20 11:22:27;;;;;;;;;;;10.00;64.90;;;;;;4994751;28;19936;-48
2022/11/20 11:24:54;;;;;;;;;;;10.10;64.90;;;;;;4994149;28;19926;-48
2022/11/20 11:27:21;;;;;;;;;;;10.10;65.00;;;;;;4994359;28;19932;-48
2022/11/20 11:29:47;;;;;;;;;;;10.10;65.00;;;;;;4994889;28;19933;-48
2022/11/20 11:32:15;;;;;;;;;;;10.10;65.00;;;;;;4993032;28;19926;-48
2022/11/20 11:34:41;;;;;;;;;;;10.10;65.00;;;;;;4992179;28;19930;-48
2022/11/20 11:37:19;;;;;;;;;;;10.10;64.90;;;;;;4994214;28;19932;-47
2022/11/20 11:39:48;;;;;;;;;;;10.10;64.70;;;;;;4994533;28;19969;-49
2022/11/20 11:42:32;;;;;;;;;;;10.20;64.80;;;;;;4993809;28;19957;-48
2022/11/20 11:45:05;;;;;;;;;;;10.20;64.80;;;;;;4994246;28;19926;-48
2022/11/20 11:47:35;;;;;;;;;;;10.20;64.80;;;;;;4994214;28;19930;-47
2022/11/20 11:50:09;;;;;;;;;;;10.20;64.80;;;;;;4993169;28;19933;-48
2022/11/20 11:52:46;;;;;;;;;;;10.20;64.70;;;;;;4990894;28;20025;-48
2022/11/20 11:55:33;;;;;;;;;;;10.20;64.70;;;;;;4993409;28;19932;-49
2022/11/20 11:58:06;;;;;;;;;;;10.20;64.70;;;;;;4944726;28;20394;-49
2022/11/20 12:00:34;;;;;;;;;;;10.20;64.80;;;;;;4978637;28;19930;-48
2022/11/20 12:03:09;;;;;;;;;;;10.20;64.90;;;;;;4994120;28;19932;-48
2022/11/20 12:05:43;;;;;;;;;;;10.20;64.90;;;;;;4993468;28;19964;-47
2022/11/20 12:08:23;;;;;;;;;;;10.20;64.90;;;;;;4994208;28;20317;-48
2022/11/20 12:11:00;;;;;;;;;;;10.20;64.90;;;;;;4993092;28;20020;-48
2022/11/20 12:13:33;;;;;;;;;;;10.20;64.90;;;;;;4993779;28;19972;-50
2022/11/20 12:16:03;;;;;;;;;;;10.20;65.50;;;;;;4985992;28;20416;-48
2022/11/20 12:18:30;;;;;;;;;;;10.20;64.90;;;;;;4993375;28;19992;-48
2022/11/20 12:21:07;;;;;;;;;;;10.20;65.00;;;;;;4993694;28;19926;-48
2022/11/20 12:23:48;;;;;;;;;;;10.20;65.10;;;;;;4993480;28;19929;-48
2022/11/20 12:26:33;;;;;;;;;;;10.20;65.10;;;;;;4993437;28;20068;-48
2022/11/20 12:29:12;;;;;;;;;;;10.20;65.20;;;;;;4993013;28;19926;-48
2022/11/20 12:31:52;;;;;;;;;;;10.20;65.30;;;;;;4993215;28;19926;-50
2022/11/20 12:34:42;;;;;;;;;;;10.30;65.30;;;;;;4992602;28;19930;-50
2022/11/20 12:37:16;;;;;;;;;;;10.30;65.30;;;;;;4982399;28;19926;-50
2022/11/20 12:39:47;;;;;;;;;;;10.30;65.40;;;;;;4992624;28;20008;-50
2022/11/20 12:45:25;;;;;;;;;;;10.40;65.50;;;;;;4987138;28;20301;-49
2022/11/20 12:47:51;;;;;;;;;;;10.40;65.40;;;;;;4991883;28;19932;-50
2022/11/20 12:50:27;;;;;;;;;;;10.40;65.50;;;;;;4991938;28;20393;-47
2022/11/20 12:52:56;;;;;;;;;;;10.40;65.40;;;;;;4990370;28;19925;-48
2022/11/20 12:55:28;;;;;;;;;;;10.40;65.40;;;;;;4992743;28;19981;-47
2022/11/20 12:58:04;;;;;;;;;;;10.40;65.40;;;;;;4993124;28;19932;-48
2022/11/20 13:00:34;;;;;;;;;;;10.40;65.40;;;;;;4992348;28;20143;-47
2022/11/20 13:03:00;;;;;;;;;;;10.50;65.40;;;;;;4993047;28;19926;-48
2022/11/20 13:05:36;;;;;;;;;;;10.50;65.40;;;;;;4992600;28;19972;-47
2022/11/20 13:08:03;;;;;;;;;;;10.50;65.50;;;;;;4991748;28;19926;-48
2022/11/20 13:10:37;;;;;;;;;;;10.50;65.50;;;;;;4992918;28;19932;-48
2022/11/20 13:13:11;;;;;;;;;;;10.60;65.60;;;;;;4992896;28;20407;-48
2022/11/20 13:15:58;;;;;;;;;;;10.50;65.50;;;;;;4991369;28;19926;-51
2022/11/20 13:18:25;;;;;;;;;;;10.60;65.60;;;;;;4952941;28;19930;-47
2022/11/20 13:20:52;;;;;;;;;;;10.60;65.70;;;;;;4991715;28;19936;-47
2022/11/20 13:23:26;;;;;;;;;;;10.60;65.70;;;;;;4992630;28;19926;-51
2022/11/20 13:26:04;;;;;;;;;;;10.60;65.70;;;;;;4990279;28;19984;-47
2022/11/20 13:28:31;;;;;;;;;;;10.70;65.80;;;;;;4992013;28;19932;-47
2022/11/20 13:31:00;;;;;;;;;;;10.70;65.80;;;;;;4992650;28;19933;-48
2022/11/20 13:33:35;;;;;;;;;;;10.70;65.90;;;;;;4991064;28;20393;-46
2022/11/20 13:36:05;;;;;;;;;;;10.80;65.80;;;;;;4990862;28;19929;-48
2022/11/20 13:38:48;;;;;;;;;;;10.80;65.70;;;;;;4992432;28;19926;-48
2022/11/20 13:41:35;;;;;;;;;;;10.90;65.70;;;;;;4992580;28;19926;-47
2022/11/20 13:44:24;;;;;;;;;;;10.90;65.60;;;;;;4990707;28;20020;-47
2022/11/20 13:46:51;;;;;;;;;;;10.90;65.50;;;;;;4990887;28;20016;-47
2022/11/20 13:49:30;;;;;;;;;;;10.90;65.50;;;;;;4991037;28;19937;-49
2022/11/20 13:52:08;;;;;;;;;;;10.90;65.40;;;;;;4988131;28;19932;-48
2022/11/20 13:54:38;;;;;;;;;;;10.90;65.40;;;;;;4992100;28;19926;-48
2022/11/20 13:57:29;;;;;;;;;;;10.90;65.40;;;;;;4992294;28;19966;-47
2022/11/20 14:00:10;;;;;;;;;;;10.90;65.50;;;;;;4991678;28;19953;-48
2022/11/20 14:02:37;;;;;;;;;;;10.90;65.50;;;;;;4989767;28;19933;-47
2022/11/20 14:05:04;;;;;;;;;;;10.90;65.40;;;;;;4991301;28;20405;-47
2022/11/20 14:07:36;;;;;;;;;;;10.80;65.30;;;;;;4991759;28;19953;-47
2022/11/20 14:10:03;;;;;;;;;;;10.80;65.30;;;;;;4992405;28;20385;-48
2022/11/20 14:12:32;;;;;;;;;;;10.80;65.30;;;;;;4992224;28;20429;-49
2022/11/20 14:15:02;;;;;;;;;;;10.80;65.20;;;;;;4991546;28;19942;-51
2022/11/20 14:17:33;;;;;;;;;;;10.80;65.30;;;;;;4991716;28;20318;-47
2022/11/20 14:20:06;;;;;;;;;;;10.80;65.30;;;;;;4990957;28;19989;-51
2022/11/20 14:22:33;;;;;;;;;;;10.80;65.30;;;;;;4991510;28;20036;-48
2022/11/20 14:25:15;;;;;;;;;;;10.70;65.20;;;;;;4991719;28;19996;-48
2022/11/20 14:27:44;;;;;;;;;;;10.70;65.20;;;;;;4994076;28;20021;-49
2022/11/20 14:30:15;;;;;;;;;;;10.70;65.20;;;;;;4996080;28;19932;-48
2022/11/20 14:32:43;;;;;;;;;;;10.60;65.20;;;;;;4994812;28;19950;-49
2022/11/20 14:35:14;;;;;;;;;;;10.60;65.30;;;;;;4994944;28;20008;-47
2022/11/20 14:37:43;;;;;;;;;;;10.60;65.30;;;;;;4995245;28;19936;-46
2022/11/20 14:40:22;;;;;;;;;;;10.60;65.40;;;;;;4995374;28;20321;-47
2022/11/20 14:42:49;;;;;;;;;;;10.50;65.40;;;;;;4994596;28;19925;-48
2022/11/20 14:45:16;;;;;;;;;;;10.50;65.50;;;;;;4995342;28;19926;-49
2022/11/20 14:47:45;;;;;;;;;;;10.50;65.50;;;;;;4995344;28;19933;-48
2022/11/20 14:50:25;;;;;;;;;;;10.50;65.50;;;;;;4994140;28;19932;-48